Time;durP1;ratioP1;P1;durP2;ratioP2;P2;SDS_P1;SDS_P2;PMS_P1;PMS_P2;Temp;Humidity;BMP_temperature;BMP_pressure;BME280_temperature;BME280_humidity;BME280_pressure;Samples;Min_cycle;Max_cycle;Signal;HPM_P1;HPM_P2
2023/06/03 00:01:11;;;;;;;0.10;0.10;;;;;;;22.34;38.41;102314.31;5049651;28;20036;-65
2023/06/03 00:03:38;;;;;;;0.10;0.10;;;;;;;22.36;37.63;102316.78;5049563;28;20032;-65
2023/06/03 00:06:05;;;;;;;0.10;0.10;;;;;;;22.45;37.17;102313.25;5041269;28;20038;-66
2023/06/03 00:08:30;;;;;;;0.10;0.10;;;;;;;22.42;37.35;102311.06;5041883;28;20037;-66
2023/06/03 00:10:56;;;;;;;0.10;0.10;;;;;;;22.22;37.23;102310.97;5040735;28;20033;-66
2023/06/03 00:13:21;;;;;;;0.00;0.00;;;;;;;22.12;37.20;102316.38;5051166;28;20642;-66
2023/06/03 00:15:47;;;;;;;0.08;0.08;;;;;;;22.17;37.30;102323.81;5051390;28;20047;-67
2023/06/03 00:18:13;;;;;;;0.10;0.10;;;;;;;22.15;37.15;102324.06;5052053;28;20482;-66
2023/06/03 00:20:39;;;;;;;0.10;0.10;;;;;;;22.03;37.59;102328.13;5053168;28;20636;-68
2023/06/03 00:23:05;;;;;;;0.10;0.10;;;;;;;22.07;36.41;102334.72;5052973;28;20041;-66
2023/06/03 00:25:34;;;;;;;0.10;0.10;;;;;;;21.87;37.03;102334.59;5052904;28;20508;-65
2023/06/03 00:28:00;;;;;;;0.10;0.10;;;;;;;22.01;36.77;102343.97;5051848;28;20420;-68
2023/06/03 00:30:26;;;;;;;0.20;0.20;;;;;;;21.98;36.36;102339.84;5049993;28;20525;-65
2023/06/03 00:32:51;;;;;;;0.15;0.15;;;;;;;22.01;35.86;102344.81;5053003;28;20040;-65
2023/06/03 00:35:16;;;;;;;0.10;0.10;;;;;;;21.84;35.46;102336.75;5052956;28;20033;-65
2023/06/03 00:37:42;;;;;;;0.10;0.10;;;;;;;21.70;35.88;102331.97;5052742;28;20453;-65
2023/06/03 00:40:08;;;;;;;0.10;0.10;;;;;;;21.91;35.70;102338.44;5052602;28;20400;-65
2023/06/03 00:42:33;;;;;;;0.10;0.10;;;;;;;21.80;35.56;102335.63;5052887;28;20056;-66
2023/06/03 00:44:59;;;;;;;0.10;0.10;;;;;;;21.75;35.21;102332.84;5053200;28;20028;-65
2023/06/03 00:47:24;;;;;;;0.20;0.20;;;;;;;21.60;35.19;102323.69;5052885;28;20037;-65
2023/06/03 00:49:50;;;;;;;0.10;0.10;;;;;;;21.73;34.70;102325.97;5052631;28;20057;-64
2023/06/03 00:52:17;;;;;;;0.10;0.10;;;;;;;21.26;34.64;102331.34;5060392;28;20036;-67
2023/06/03 00:54:44;;;;;;;0.10;0.10;;;;;;;21.60;34.78;102320.97;5048658;28;20047;-65
2023/06/03 00:57:10;;;;;;;0.10;0.10;;;;;;;21.53;35.04;102332.13;5053684;28;20492;-67
2023/06/03 00:59:35;;;;;;;0.13;0.13;;;;;;;21.68;34.41;102332.22;5052049;28;20037;-65
2023/06/03 01:02:00;;;;;;;0.20;0.20;;;;;;;21.44;34.76;102325.50;5049150;28;20033;-65
2023/06/03 01:04:29;;;;;;;0.20;0.20;;;;;;;21.41;34.47;102320.53;5046792;28;20098;-66
2023/06/03 01:07:16;;;;;;;0.10;0.10;;;;;;;21.47;34.08;102326.88;5048794;28;20036;-67
2023/06/03 01:10:19;;;;;;;0.10;0.10;;;;;;;21.57;33.96;102321.47;5051376;28;20029;-65
2023/06/03 01:12:51;;;;;;;0.15;0.15;;;;;;;21.40;33.96;102324.38;5034299;28;20489;-66
2023/06/03 01:15:21;;;;;;;0.10;0.10;;;;;;;21.30;33.51;102313.34;5052632;28;20052;-65
2023/06/03 01:17:49;;;;;;;0.10;0.10;;;;;;;21.33;33.57;102322.91;5048165;28;20048;-65
2023/06/03 01:20:16;;;;;;;0.20;0.20;;;;;;;21.36;33.57;102325.16;5052007;28;20122;-66
2023/06/03 01:22:44;;;;;;;0.10;0.10;;;;;;;21.32;32.92;102315.81;5048052;28;20041;-66
2023/06/03 01:25:12;;;;;;;0.20;0.20;;;;;;;21.27;33.52;102329.41;5051135;28;20170;-65
2023/06/03 01:27:39;;;;;;;0.10;0.10;;;;;;;21.27;33.29;102318.47;5048233;28;20072;-66
2023/06/03 01:30:10;;;;;;;0.10;0.10;;;;;;;21.22;33.19;102330.22;5049010;28;20145;-65
2023/06/03 01:32:38;;;;;;;0.10;0.10;;;;;;;21.18;33.06;102331.00;5067048;28;20071;-66
2023/06/03 01:35:09;;;;;;;0.10;0.10;;;;;;;21.29;33.05;102335.47;5048401;28;20041;-65
2023/06/03 01:37:34;;;;;;;;;;;;;;;21.53;32.55;102329.38;5048761;28;20094;-66
2023/06/03 01:40:02;;;;;;;0.25;0.10;;;;;;;21.10;32.55;102331.47;5033453;28;19916;-67
2023/06/03 01:42:27;;;;;;;0.10;0.10;;;;;;;20.86;33.02;102339.94;5052086;28;20517;-66
2023/06/03 01:44:53;;;;;;;0.10;0.10;;;;;;;21.03;32.62;102337.13;5048240;28;20048;-65
2023/06/03 01:47:19;;;;;;;0.20;0.20;;;;;;;20.74;33.12;102338.41;5058555;28;20040;-66
2023/06/03 01:49:45;;;;;;;0.10;0.10;;;;;;;20.79;32.80;102341.22;5049781;28;20123;-65
2023/06/03 01:52:11;;;;;;;0.20;0.20;;;;;;;20.79;32.83;102341.22;5049722;28;20113;-64
2023/06/03 01:54:36;;;;;;;0.20;0.20;;;;;;;20.92;32.63;102338.91;5066474;28;20417;-65
2023/06/03 01:57:02;;;;;;;0.10;0.10;;;;;;;21.00;32.34;102338.47;5060680;28;20025;-65
2023/06/03 01:59:27;;;;;;;0.10;0.10;;;;;;;20.85;32.69;102342.94;5055504;28;20386;-64
2023/06/03 02:01:57;;;;;;;0.10;0.10;;;;;;;20.88;32.57;102339.69;5051002;28;20358;-65
2023/06/03 02:04:23;;;;;;;0.10;0.10;;;;;;;20.71;33.03;102345.25;5051031;28;20033;-66
2023/06/03 02:07:01;;;;;;;0.13;0.13;;;;;;;20.62;33.01;102335.00;5051233;28;20512;-65
2023/06/03 02:09:28;;;;;;;0.10;0.10;;;;;;;20.77;32.70;102341.50;5051460;28;20035;-66
2023/06/03 02:11:58;;;;;;;0.20;0.20;;;;;;;20.61;33.28;102341.56;5051066;28;20835;-65
2023/06/03 02:14:26;;;;;;;0.10;0.10;;;;;;;20.56;32.92;102331.41;5050994;28;20052;-66
2023/06/03 02:16:52;;;;;;;0.13;0.13;;;;;;;20.30;32.95;102334.06;5051009;28;20090;-63
2023/06/03 02:19:20;;;;;;;0.10;0.10;;;;;;;20.45;33.27;102335.09;5050302;28;20065;-64
2023/06/03 02:21:46;;;;;;;0.10;0.10;;;;;;;20.64;32.67;102335.56;5049684;28;20057;-65
2023/06/03 02:24:14;;;;;;;0.20;0.20;;;;;;;20.55;33.05;102331.66;5050759;28;20056;-66
2023/06/03 02:26:50;;;;;;;0.10;0.10;;;;;;;20.26;33.45;102332.94;5050195;28;20036;-65
2023/06/03 02:29:25;;;;;;;0.25;0.25;;;;;;;20.53;33.00;102334.66;5041691;28;20041;-65
2023/06/03 02:31:51;;;;;;;0.10;0.10;;;;;;;20.30;33.75;102328.63;5044356;28;20116;-67
2023/06/03 02:34:17;;;;;;;0.20;0.20;;;;;;;20.09;33.51;102327.47;5049230;28;20043;-66
2023/06/03 02:36:43;;;;;;;0.10;0.10;;;;;;;20.12;33.05;102338.75;5045906;28;20111;-65
2023/06/03 02:39:10;;;;;;;0.10;0.10;;;;;;;20.30;33.02;102326.72;5050462;28;20488;-66
2023/06/03 02:41:38;;;;;;;0.10;0.10;;;;;;;20.23;33.06;102333.41;5046306;28;20029;-64
2023/06/03 02:44:04;;;;;;;0.10;0.10;;;;;;;20.02;33.47;102337.75;5056782;28;20028;-64
2023/06/03 02:46:30;;;;;;;0.10;0.10;;;;;;;20.08;33.23;102329.41;5049858;28;20124;-65
2023/06/03 02:48:56;;;;;;;0.20;0.20;;;;;;;20.02;32.99;102338.59;5046650;28;20091;-66
2023/06/03 02:51:21;;;;;;;0.10;0.10;;;;;;;19.98;32.97;102337.44;5050269;28;20120;-65
2023/06/03 02:53:47;;;;;;;0.10;0.10;;;;;;;20.07;33.40;102335.91;5049770;28;20040;-64
2023/06/03 02:56:12;;;;;;;0.10;0.10;;;;;;;20.07;33.42;102340.53;5054094;28;20037;-66
2023/06/03 02:58:39;;;;;;;0.10;0.10;;;;;;;19.99;33.26;102333.63;5049858;28;20392;-66
2023/06/03 03:01:05;;;;;;;0.40;0.10;;;;;;;19.94;33.38;102336.28;5050341;28;20033;-64
2023/06/03 03:03:35;;;;;;;0.10;0.10;;;;;;;19.90;33.34;102334.31;5050558;28;20035;-63
2023/06/03 03:06:06;;;;;;;0.10;0.10;;;;;;;19.81;33.63;102339.34;5034068;28;20040;-65
2023/06/03 03:08:32;;;;;;;0.10;0.10;;;;;;;19.87;33.24;102340.28;5046818;28;20053;-65
2023/06/03 03:10:57;;;;;;;0.20;0.20;;;;;;;20.04;32.98;102338.34;5046540;28;20059;-65
2023/06/03 03:13:22;;;;;;;0.10;0.10;;;;;;;19.68;33.97;102339.69;5049941;28;20041;-66
2023/06/03 03:15:48;;;;;;;0.10;0.10;;;;;;;19.85;33.77;102343.22;5046220;28;20516;-67
2023/06/03 03:18:14;;;;;;;0.20;0.20;;;;;;;19.91;33.33;102349.63;5050014;28;20025;-66
2023/06/03 03:20:39;;;;;;;0.10;0.10;;;;;;;19.82;32.92;102343.75;5045961;28;20049;-65
2023/06/03 03:23:06;;;;;;;0.10;0.10;;;;;;;19.65;33.13;102350.28;5049537;28;20048;-68
2023/06/03 03:25:31;;;;;;;0.13;0.13;;;;;;;19.56;34.27;102352.59;5046373;28;20124;-67
2023/06/03 03:27:58;;;;;;;0.10;0.10;;;;;;;19.52;34.25;102348.72;5046383;28;20029;-65
2023/06/03 03:30:23;;;;;;;0.10;0.10;;;;;;;19.57;33.68;102350.69;5050512;28;20079;-65
2023/06/03 03:32:49;;;;;;;0.20;0.20;;;;;;;19.66;33.74;102351.94;5046395;28;20496;-67
2023/06/03 03:35:21;;;;;;;0.13;0.13;;;;;;;19.48;34.02;102355.72;5050062;28;20094;-67
2023/06/03 03:37:49;;;;;;;0.10;0.10;;;;;;;19.47;34.30;102354.09;5046251;28;20060;-65
2023/06/03 03:40:22;;;;;;;0.10;0.10;;;;;;;19.52;33.97;102358.81;5054492;28;20051;-65
2023/06/03 03:42:52;;;;;;;0.10;0.10;;;;;;;19.40;34.32;102358.84;5049728;28;20078;-65
2023/06/03 03:45:25;;;;;;;0.10;0.10;;;;;;;19.75;34.24;102358.63;5046766;28;20108;-66
2023/06/03 03:47:51;;;;;;;0.20;0.20;;;;;;;19.56;34.21;102363.50;5052850;28;20060;-65
2023/06/03 03:50:35;;;;;;;0.10;0.10;;;;;;;19.47;33.91;102358.72;5053646;28;20098;-66
2023/06/03 03:53:04;;;;;;;0.10;0.10;;;;;;;19.43;34.27;102354.81;5053612;28;20033;-65
2023/06/03 03:55:30;;;;;;;0.10;0.10;;;;;;;19.35;34.33;102349.78;5058188;28;20040;-65
2023/06/03 03:57:56;;;;;;;0.10;0.10;;;;;;;19.32;34.30;102353.78;5050453;28;20354;-65
2023/06/03 04:00:21;;;;;;;0.10;0.10;;;;;;;19.42;34.20;102350.47;5053580;28;20025;-67
2023/06/03 04:02:49;;;;;;;0.10;0.10;;;;;;;19.29;35.01;102344.22;5051664;28;20029;-66
2023/06/03 04:05:16;;;;;;;0.10;0.10;;;;;;;19.43;34.03;102354.81;5049671;28;20041;-67
2023/06/03 04:07:43;;;;;;;0.10;0.10;;;;;;;19.15;34.15;102355.66;5050763;28;20033;-65
2023/06/03 04:10:09;;;;;;;0.10;0.10;;;;;;;19.45;33.65;102347.22;5048054;28;20758;-66
2023/06/03 04:12:38;;;;;;;0.20;0.20;;;;;;;19.43;34.04;102346.66;5048219;28;20036;-65
2023/06/03 04:15:04;;;;;;;0.13;0.13;;;;;;;19.44;34.06;102349.13;5046474;28;20497;-65
2023/06/03 04:17:30;;;;;;;0.10;0.10;;;;;;;19.43;34.04;102352.94;5052512;28;20037;-67
2023/06/03 04:19:56;;;;;;;0.10;0.10;;;;;;;19.57;34.43;102353.44;5052564;28;20036;-66
2023/06/03 04:22:23;;;;;;;0.10;0.10;;;;;;;19.62;33.44;102359.78;5039458;28;20045;-65
2023/06/03 04:24:58;;;;;;;0.00;0.00;;;;;;;19.58;33.57;102355.06;5053066;28;20029;-66
2023/06/03 04:27:24;;;;;;;0.10;0.10;;;;;;;19.69;34.20;102356.91;5050040;28;20041;-66
2023/06/03 04:29:50;;;;;;;0.10;0.10;;;;;;;19.51;33.65;102359.88;5046022;28;20052;-65
2023/06/03 04:32:15;;;;;;;0.00;0.00;;;;;;;19.64;33.28;102357.63;5048291;28;20104;-65
2023/06/03 04:34:51;;;;;;;0.20;0.20;;;;;;;19.34;34.08;102359.03;5052853;28;20124;-65
2023/06/03 04:37:17;;;;;;;0.10;0.10;;;;;;;19.61;33.76;102360.88;5048509;28;20044;-67
2023/06/03 04:39:43;;;;;;;0.10;0.10;;;;;;;19.64;33.15;102362.25;5051469;28;20021;-66
2023/06/03 04:42:10;;;;;;;0.10;0.10;;;;;;;19.44;34.03;102360.03;5047336;28;20017;-66
2023/06/03 04:44:38;;;;;;;0.10;0.10;;;;;;;19.51;33.89;102360.72;5052954;28;20041;-66
2023/06/03 04:47:04;;;;;;;0.10;0.10;;;;;;;19.29;34.30;102362.47;5067745;28;20128;-67
2023/06/03 04:49:32;;;;;;;0.15;0.15;;;;;;;19.45;34.05;102364.41;5049160;28;20040;-64
2023/06/03 04:51:57;;;;;;;0.10;0.10;;;;;;;19.13;34.08;102357.81;5052415;28;20036;-66
2023/06/03 04:54:23;;;;;;;0.10;0.10;;;;;;;19.27;34.54;102365.44;5052946;28;20039;-66
2023/06/03 04:56:49;;;;;;;0.10;0.10;;;;;;;19.67;33.71;102362.63;5056291;28;20033;-67
2023/06/03 04:59:15;;;;;;;0.10;0.10;;;;;;;19.97;33.12;102362.22;5051431;28;20409;-66
2023/06/03 05:01:40;;;;;;;0.20;0.20;;;;;;;19.49;33.74;102365.56;5052116;28;20041;-66
2023/06/03 05:04:11;;;;;;;0.13;0.13;;;;;;;19.51;34.09;102365.31;5052430;28;20036;-66
2023/06/03 05:06:37;;;;;;;0.10;0.10;;;;;;;19.92;33.44;102363.00;5052719;28;20033;-65
2023/06/03 05:09:02;;;;;;;0.10;0.10;;;;;;;20.00;33.39;102370.75;5052675;28;20029;-65
2023/06/03 05:11:28;;;;;;;0.10;0.10;;;;;;;20.05;33.02;102367.25;5052183;28;20030;-67
2023/06/03 05:13:53;;;;;;;0.10;0.10;;;;;;;19.97;32.77;102373.16;5052179;28;20047;-66
2023/06/03 05:16:19;;;;;;;0.10;0.10;;;;;;;19.23;34.77;102371.63;5052274;28;20043;-65
2023/06/03 05:18:45;;;;;;;0.10;0.10;;;;;;;19.90;33.98;102372.50;5051946;28;20506;-65
2023/06/03 05:21:10;;;;;;;0.10;0.10;;;;;;;19.74;33.72;102374.16;5052243;28;20017;-65
2023/06/03 05:23:35;;;;;;;0.17;0.17;;;;;;;20.10;33.04;102370.09;5051739;28;20067;-65
2023/06/03 05:26:01;;;;;;;0.10;0.10;;;;;;;20.27;32.83;102372.78;5051719;28;20090;-66
2023/06/03 05:28:27;;;;;;;0.10;0.10;;;;;;;20.39;33.00;102370.78;5043413;28;20057;-66
2023/06/03 05:30:52;;;;;;;0.10;0.10;;;;;;;20.70;32.43;102378.25;5048376;28;20052;-65
2023/06/03 05:33:33;;;;;;;0.10;0.10;;;;;;;20.83;32.76;102381.44;5048003;28;20404;-66
2023/06/03 05:35:58;;;;;;;0.10;0.10;;;;;;;20.59;32.74;102390.16;5045101;28;20037;-65
2023/06/03 05:38:23;;;;;;;0.10;0.10;;;;;;;20.22;33.68;102372.72;5051586;28;20033;-66
2023/06/03 05:40:50;;;;;;;0.10;0.10;;;;;;;20.58;32.78;102380.34;5051447;28;20033;-66
2023/06/03 05:43:15;;;;;;;0.10;0.10;;;;;;;20.55;33.14;102386.28;5051776;28;20143;-64
2023/06/03 05:45:42;;;;;;;0.10;0.10;;;;;;;20.25;33.29;102381.25;5051631;28;20032;-67
2023/06/03 05:48:08;;;;;;;0.10;0.10;;;;;;;20.11;34.00;102388.09;5051972;28;20525;-66
2023/06/03 05:50:38;;;;;;;0.00;0.00;;;;;;;20.22;33.92;102381.75;5051410;28;20124;-66
2023/06/03 05:53:03;;;;;;;0.17;0.17;;;;;;;20.66;32.99;102386.16;5051491;28;20052;-65
2023/06/03 05:55:29;;;;;;;0.20;0.20;;;;;;;20.95;32.75;102384.84;5054669;28;20025;-65
2023/06/03 05:57:56;;;;;;;0.10;0.10;;;;;;;20.07;33.84;102385.03;5051569;28;20570;-65
2023/06/03 06:00:21;;;;;;;0.15;0.15;;;;;;;20.74;33.91;102382.97;5051671;28;20525;-66
2023/06/03 06:02:47;;;;;;;0.10;0.10;;;;;;;21.17;32.97;102390.31;5051260;28;20132;-66
2023/06/03 06:05:13;;;;;;;0.10;0.10;;;;;;;21.06;32.87;102390.47;5051447;28;20029;-64
2023/06/03 06:07:39;;;;;;;0.10;0.10;;;;;;;21.41;31.87;102383.44;5051103;28;20144;-66
2023/06/03 06:10:04;;;;;;;0.10;0.10;;;;;;;21.41;32.93;102382.63;5051226;28;20025;-66
2023/06/03 06:12:30;;;;;;;0.10;0.10;;;;;;;20.81;32.59;102380.84;5051252;28;20473;-66
2023/06/03 06:14:55;;;;;;;0.10;0.10;;;;;;;21.07;32.30;102392.13;5050951;28;20501;-65
2023/06/03 06:17:21;;;;;;;0.10;0.10;;;;;;;20.16;33.80;102382.72;5050833;28;20044;-65
2023/06/03 06:19:47;;;;;;;0.10;0.10;;;;;;;20.67;32.93;102387.81;5050515;28;20613;-66
2023/06/03 06:22:12;;;;;;;0.10;0.10;;;;;;;21.04;32.50;102387.16;5050620;28;20487;-65
2023/06/03 06:24:37;;;;;;;0.00;0.00;;;;;;;21.10;32.94;102391.59;5050829;28;20028;-65
2023/06/03 06:27:04;;;;;;;0.10;0.10;;;;;;;20.93;32.87;102394.41;5050598;28;20029;-65
2023/06/03 06:29:30;;;;;;;0.10;0.10;;;;;;;20.53;33.57;102394.75;5051030;28;20412;-65
2023/06/03 06:31:55;;;;;;;0.20;0.20;;;;;;;20.68;32.58;102392.19;5050704;28;20037;-66
2023/06/03 06:34:21;;;;;;;0.10;0.10;;;;;;;21.14;32.38;102398.22;5050626;28;20040;-65
2023/06/03 06:36:52;;;;;;;0.10;0.10;;;;;;;21.19;33.17;102398.28;5047286;28;20032;-66
2023/06/03 06:39:44;;;;;;;0.10;0.10;;;;;;;21.19;33.37;102401.00;5051035;28;20032;-66
2023/06/03 06:42:16;;;;;;;0.10;0.10;;;;;;;21.47;32.21;102404.28;5046924;28;20052;-64
2023/06/03 06:44:46;;;;;;;0.10;0.10;;;;;;;21.35;32.10;102402.78;5050229;28;20051;-65
2023/06/03 06:47:15;;;;;;;0.10;0.10;;;;;;;21.72;31.99;102398.19;5050398;28;20055;-66
2023/06/03 06:49:40;;;;;;;0.20;0.20;;;;;;;20.87;32.79;102395.44;5064537;28;20033;-66
2023/06/03 06:52:09;;;;;;;0.10;0.10;;;;;;;21.42;31.90;102397.97;5047610;28;20036;-66
2023/06/03 06:54:34;;;;;;;0.10;0.10;;;;;;;21.11;32.99;102394.06;5031767;28;20048;-66
2023/06/03 06:57:00;;;;;;;0.10;0.10;;;;;;;21.57;31.85;102389.88;5050608;28;20451;-65
2023/06/03 06:59:25;;;;;;;0.10;0.10;;;;;;;22.29;30.04;102396.44;5031280;28;20532;-66
2023/06/03 07:01:51;;;;;;;0.10;0.10;;;;;;;21.98;31.01;102386.41;5047546;28;20025;-66
2023/06/03 07:04:16;;;;;;;0.15;0.15;;;;;;;22.34;30.91;102379.22;5048908;28;20051;-66
2023/06/03 07:06:41;;;;;;;0.10;0.10;;;;;;;21.87;30.65;102389.31;5046623;28;20432;-66
2023/06/03 07:09:07;;;;;;;0.20;0.20;;;;;;;22.59;29.38;102387.59;5050453;28;20029;-65
2023/06/03 07:11:40;;;;;;;0.10;0.10;;;;;;;22.76;29.03;102396.41;5049036;28;20485;-66
2023/06/03 07:14:05;;;;;;;0.10;0.10;;;;;;;22.51;29.05;102396.28;5046519;28;20045;-66
2023/06/03 07:16:31;;;;;;;0.10;0.10;;;;;;;22.73;28.86;102396.97;5050088;28;20700;-65
2023/06/03 07:18:56;;;;;;;0.00;0.00;;;;;;;22.30;29.36;102398.09;5049933;28;20037;-65
2023/06/03 07:21:25;;;;;;;0.00;0.00;;;;;;;22.56;30.47;102394.38;5052195;28;20036;-66
2023/06/03 07:23:50;;;;;;;0.10;0.10;;;;;;;22.37;29.96;102397.84;5056475;28;20037;-65
2023/06/03 07:26:16;;;;;;;0.00;0.00;;;;;;;23.24;29.41;102400.66;5057998;28;20095;-66
2023/06/03 07:28:41;;;;;;;0.10;0.10;;;;;;;23.71;27.71;102398.56;5047126;28;20481;-66
2023/06/03 07:31:10;;;;;;;0.10;0.10;;;;;;;23.35;27.31;102400.44;5047736;28;20040;-65
2023/06/03 07:33:49;;;;;;;0.10;0.10;;;;;;;23.42;27.37;102406.50;5048570;28;20445;-66
2023/06/03 07:36:15;;;;;;;0.10;0.10;;;;;;;23.91;26.61;102401.28;5048063;28;20028;-64
2023/06/03 07:38:55;;;;;;;0.10;0.10;;;;;;;24.13;26.81;102395.53;5032143;28;20040;-64
2023/06/03 07:41:36;;;;;;;0.00;0.00;;;;;;;23.81;26.53;102394.97;5053952;28;20132;-64
2023/06/03 07:44:04;;;;;;;0.10;0.10;;;;;;;22.85;27.47;102400.31;5055162;28;20036;-65
2023/06/03 07:46:37;;;;;;;0.10;0.10;;;;;;;24.01;26.84;102394.97;5055971;28;20099;-67
2023/06/03 07:49:03;;;;;;;0.05;0.05;;;;;;;24.19;26.39;102397.16;5055120;28;20033;-67
2023/06/03 07:51:29;;;;;;;0.10;0.10;;;;;;;23.96;25.92;102390.28;5056592;28;20128;-65
2023/06/03 07:53:55;;;;;;;0.00;0.00;;;;;;;23.69;26.00;102395.25;5063050;28;20056;-68
2023/06/03 07:56:21;;;;;;;0.10;0.10;;;;;;;24.41;26.08;102387.47;5069099;28;20124;-67
2023/06/03 07:58:46;;;;;;;0.10;0.10;;;;;;;24.58;25.79;102387.13;5068711;28;20127;-66
2023/06/03 08:01:15;;;;;;;0.00;0.00;;;;;;;24.11;25.76;102389.47;5066306;28;20043;-67
2023/06/03 08:03:41;;;;;;;0.08;0.08;;;;;;;24.20;25.87;102388.63;5070277;28;20016;-65
2023/06/03 08:06:08;;;;;;;0.10;0.10;;;;;;;24.45;25.27;102390.50;5069489;28;20491;-66
2023/06/03 08:08:33;;;;;;;0.10;0.10;;;;;;;23.78;25.25;102399.13;5066838;28;20021;-66
2023/06/03 08:11:01;;;;;;;0.10;0.10;;;;;;;24.51;24.87;102397.59;5067905;28;20495;-66
2023/06/03 08:13:26;;;;;;;0.10;0.10;;;;;;;24.73;24.58;102400.84;5067610;28;20029;-65
2023/06/03 08:15:52;;;;;;;0.10;0.10;;;;;;;24.19;26.16;102400.75;5064619;28;20526;-67
2023/06/03 08:18:50;;;;;;;0.10;0.10;;;;;;;24.79;25.06;102391.47;5066614;28;20074;-67
2023/06/03 08:21:18;;;;;;;0.00;0.00;;;;;;;25.05;24.84;102390.22;5059378;28;20419;-66
2023/06/03 08:23:44;;;;;;;0.00;0.00;;;;;;;24.21;25.72;102393.03;5056960;28;20547;-66
2023/06/03 08:26:10;;;;;;;0.10;0.10;;;;;;;24.75;25.88;102393.13;5056776;28;20114;-67
2023/06/03 08:28:39;;;;;;;0.05;0.05;;;;;;;25.33;24.46;102385.09;5056617;28;20037;-67
2023/06/03 08:31:04;;;;;;;0.00;0.00;;;;;;;24.97;24.28;102392.75;5056341;28;20055;-67
2023/06/03 08:33:30;;;;;;;0.00;0.00;;;;;;;24.20;25.05;102385.88;5054474;28;20033;-67
2023/06/03 08:35:56;;;;;;;0.00;0.00;;;;;;;24.98;24.62;102391.66;5053793;28;20036;-67
2023/06/03 08:38:21;;;;;;;0.00;0.00;;;;;;;25.72;23.58;102385.91;5053816;28;20036;-66
2023/06/03 08:40:48;;;;;;;0.10;0.10;;;;;;;25.90;23.63;102386.03;5050257;28;20037;-65
2023/06/03 08:43:14;;;;;;;0.10;0.10;;;;;;;24.83;23.75;102386.22;5057874;28;20069;-65
2023/06/03 08:45:55;;;;;;;0.10;0.10;;;;;;;24.84;24.13;102380.47;5056517;28;20069;-65
2023/06/03 08:48:21;;;;;;;0.10;0.10;;;;;;;25.28;23.39;102392.28;5059616;28;20029;-66
2023/06/03 08:50:49;;;;;;;0.00;0.00;;;;;;;25.68;22.75;102399.44;5063189;28;20108;-67
2023/06/03 08:53:15;;;;;;;0.03;0.03;;;;;;;24.85;22.52;102384.00;5058918;28;20094;-71
2023/06/03 08:55:41;;;;;;;0.05;0.05;;;;;;;25.78;23.04;102385.56;5057196;28;20115;-66
2023/06/03 08:58:14;;;;;;;0.10;0.10;;;;;;;25.76;21.90;102390.56;5059369;28;20063;-65
2023/06/03 09:00:41;;;;;;;0.00;0.00;;;;;;;25.25;22.38;102389.28;5055884;28;20021;-65
2023/06/03 09:03:07;;;;;;;0.00;0.00;;;;;;;25.74;22.17;102390.03;5058539;28;20028;-64
2023/06/03 09:05:37;;;;;;;0.00;0.00;;;;;;;25.32;21.84;102388.97;5057453;28;20122;-65
2023/06/03 09:08:02;;;;;;;0.00;0.00;;;;;;;25.43;22.35;102383.13;5058658;28;20044;-66
2023/06/03 09:10:30;;;;;;;0.00;0.00;;;;;;;25.30;22.67;102377.41;5056311;28;20029;-67
2023/06/03 09:12:58;;;;;;;0.00;0.00;;;;;;;25.57;21.77;102380.53;5057967;28;20510;-65
2023/06/03 09:15:23;;;;;;;0.08;0.08;;;;;;;25.23;22.02;102378.56;5059390;28;20052;-65
2023/06/03 09:17:49;;;;;;;0.00;0.00;;;;;;;25.95;21.36;102382.38;5057242;28;20029;-66
2023/06/03 09:20:15;;;;;;;0.00;0.00;;;;;;;25.75;20.70;102380.63;5054110;28;20513;-65
2023/06/03 09:22:47;;;;;;;0.00;0.00;;;;;;;25.64;21.74;102375.50;5055657;28;20136;-64
2023/06/03 09:25:14;;;;;;;0.00;0.00;;;;;;;25.67;21.63;102381.25;5056376;28;20117;-66
2023/06/03 09:27:40;;;;;;;0.00;0.00;;;;;;;25.59;21.32;102373.59;5059383;28;20025;-65
2023/06/03 09:30:06;;;;;;;0.00;0.00;;;;;;;25.72;20.86;102372.13;5057388;28;20021;-64
2023/06/03 09:32:35;;;;;;;0.00;0.00;;;;;;;25.24;20.60;102368.34;5056685;28;20033;-67
2023/06/03 09:35:04;;;;;;;0.00;0.00;;;;;;;25.89;21.64;102364.25;5055309;28;20067;-64
2023/06/03 09:37:33;;;;;;;0.00;0.00;;;;;;;25.83;21.13;102380.00;5058079;28;20029;-65
2023/06/03 09:40:00;;;;;;;0.00;0.00;;;;;;;25.89;21.42;102373.34;5056702;28;20499;-65
2023/06/03 09:42:41;;;;;;;0.00;0.00;;;;;;;25.67;20.33;102373.00;5046625;28;20017;-65
2023/06/03 09:45:20;;;;;;;0.00;0.00;;;;;;;26.33;20.55;102364.91;5041636;28;20049;-65
2023/06/03 09:47:46;;;;;;;0.00;0.00;;;;;;;25.86;20.55;102378.63;5052208;28;20473;-65
2023/06/03 09:50:11;;;;;;;0.10;0.10;;;;;;;26.85;19.91;102372.25;5050933;28;20029;-64
2023/06/03 09:52:37;;;;;;;0.00;0.00;;;;;;;27.27;19.87;102361.16;5056449;28;20044;-65
2023/06/03 09:55:07;;;;;;;0.00;0.00;;;;;;;26.29;19.51;102363.03;5054643;28;20061;-65
2023/06/03 09:57:33;;;;;;;0.00;0.00;;;;;;;25.78;19.56;102366.28;5036207;28;20091;-65
2023/06/03 10:00:07;;;;;;;0.00;0.00;;;;;;;26.90;20.00;102370.28;5037013;28;20049;-65
2023/06/03 10:02:35;;;;;;;0.10;0.10;;;;;;;27.49;19.13;102368.81;5047133;28;20028;-65
2023/06/03 10:05:00;;;;;;;0.00;0.00;;;;;;;27.20;19.01;102368.16;5058048;28;20565;-66
2023/06/03 10:07:26;;;;;;;0.00;0.00;;;;;;;27.85;18.34;102360.75;5056426;28;20037;-65
2023/06/03 10:10:03;;;;;;;0.00;0.00;;;;;;;27.74;19.06;102362.88;5057584;28;20031;-65
2023/06/03 10:12:29;;;;;;;0.00;0.00;;;;;;;26.95;19.25;102366.59;5036341;28;20893;-66
2023/06/03 10:14:56;;;;;;;0.00;0.00;;;;;;;27.77;19.04;102357.53;5057429;28;20094;-66
2023/06/03 10:17:21;;;;;;;0.00;0.00;;;;;;;27.28;18.79;102367.50;5039884;28;20037;-65
2023/06/03 10:19:47;;;;;;;0.00;0.00;;;;;;;26.98;18.97;102367.94;5048101;28;20128;-65
2023/06/03 10:22:18;;;;;;;0.00;0.00;;;;;;;27.40;18.55;102362.38;5054944;28;20045;-65
2023/06/03 10:24:45;;;;;;;0.05;0.00;;;;;;;27.30;18.43;102368.00;5057440;28;20064;-65
2023/06/03 10:27:12;;;;;;;0.00;0.00;;;;;;;27.55;18.19;102364.88;5056538;28;20067;-67
2023/06/03 10:29:38;;;;;;;0.00;0.00;;;;;;;27.92;18.26;102355.63;5049314;28;20033;-66
2023/06/03 10:32:08;;;;;;;0.00;0.00;;;;;;;27.91;16.95;102365.84;5053573;28;20045;-65
2023/06/03 10:34:41;;;;;;;0.00;0.00;;;;;;;27.89;17.51;102356.25;5034764;28;20047;-64
2023/06/03 10:37:08;;;;;;;0.00;0.00;;;;;;;27.43;17.94;102354.28;5033666;28;20041;-65
2023/06/03 10:39:34;;;;;;;0.00;0.00;;;;;;;27.28;18.77;102351.72;5044581;28;20108;-65
2023/06/03 10:42:05;;;;;;;0.00;0.00;;;;;;;27.75;18.11;102359.78;5049627;28;20025;-65
2023/06/03 10:44:31;;;;;;;0.00;0.00;;;;;;;28.31;16.25;102361.53;5047013;28;20035;-65
2023/06/03 10:47:10;;;;;;;0.00;0.00;;;;;;;28.19;17.73;102361.22;5025644;28;20608;-66
2023/06/03 10:49:45;;;;;;;0.00;0.00;;;;;;;27.84;17.87;102357.16;5044902;28;20025;-64
2023/06/03 10:52:29;;;;;;;0.00;0.00;;;;;;;28.18;17.49;102360.41;5046962;28;20024;-66
2023/06/03 10:55:13;;;;;;;0.00;0.00;;;;;;;28.80;16.53;102358.00;5046611;28;20051;-64
2023/06/03 10:58:01;;;;;;;0.00;0.00;;;;;;;28.14;17.40;102353.84;5057088;28;20852;-66
2023/06/03 11:00:52;;;;;;;0.00;0.00;;;;;;;28.97;17.52;102349.88;5060360;28;20082;-66
2023/06/03 11:03:21;;;;;;;0.00;0.00;;;;;;;28.68;16.29;102349.44;5055576;28;20044;-67
2023/06/03 11:05:46;;;;;;;0.00;0.00;;;;;;;28.19;16.90;102353.75;5061704;28;20126;-65
2023/06/03 11:08:12;;;;;;;0.00;0.00;;;;;;;28.52;17.41;102358.03;5057510;28;20072;-66
2023/06/03 11:10:39;;;;;;;0.00;0.00;;;;;;;29.17;16.62;102349.44;5054141;28;20103;-63
2023/06/03 11:13:05;;;;;;;0.00;0.00;;;;;;;27.93;17.17;102347.03;5045495;28;20069;-66
2023/06/03 11:16:02;;;;;;;0.00;0.00;;;;;;;28.56;16.52;102353.56;5046690;28;20052;-63
2023/06/03 11:18:31;;;;;;;0.00;0.00;;;;;;;28.67;15.90;102339.50;5048571;28;20136;-66
2023/06/03 11:20:57;;;;;;;0.00;0.00;;;;;;;28.70;15.76;102341.66;5046839;28;20675;-64
2023/06/03 11:23:45;;;;;;;0.00;0.00;;;;;;;29.13;15.92;102340.94;5047018;28;20037;-65
2023/06/03 11:26:29;;;;;;;0.00;0.00;;;;;;;28.28;16.12;102343.63;5046806;28;20535;-65
2023/06/03 11:28:54;;;;;;;0.00;0.00;;;;;;;27.94;15.42;102345.91;5046438;28;20058;-63